sensor_id;sensor_type;location;lat;lon;timestamp;P1;durP1;ratioP1;P2;durP2;ratioP2
58512;SDS011;44302;47.914;10.642;2022-12-22T08:11:36;1.87;;;1.10;;
58512;SDS011;44302;47.914;10.642;2022-12-22T08:21:13;1.77;;;0.93;;
58512;SDS011;44302;47.914;10.642;2022-12-22T08:23:39;2.53;;;1.07;;
58512;SDS011;44302;47.914;10.642;2022-12-22T08:27:35;2.83;;;1.33;;
58512;SDS011;44302;47.914;10.642;2022-12-22T08:32:17;2.90;;;1.00;;
58512;SDS011;44302;47.914;10.642;2022-12-22T08:35:57;2.57;;;1.20;;
58512;SDS011;44302;47.914;10.642;2022-12-22T08:40:31;2.23;;;1.10;;
58512;SDS011;44302;47.914;10.642;2022-12-22T08:42:59;1.23;;;0.80;;
58512;SDS011;44302;47.914;10.642;2022-12-22T08:46:43;1.67;;;0.80;;
58512;SDS011;44302;47.914;10.642;2022-12-22T08:49:09;3.43;;;1.20;;
58512;SDS011;44302;47.914;10.642;2022-12-22T08:57:48;1.00;;;0.80;;
58512;SDS011;44302;47.914;10.642;2022-12-22T09:00:14;3.47;;;1.10;;
58512;SDS011;44302;47.914;10.642;2022-12-22T09:02:40;3.03;;;1.10;;
58512;SDS011;44302;47.914;10.642;2022-12-22T09:06:24;3.10;;;1.00;;
58512;SDS011;44302;47.914;10.642;2022-12-22T09:08:55;3.83;;;1.10;;
58512;SDS011;44302;47.914;10.642;2022-12-22T09:11:22;2.30;;;1.27;;
58512;SDS011;44302;47.914;10.642;2022-12-22T09:13:49;2.47;;;1.00;;
58512;SDS011;44302;47.914;10.642;2022-12-22T09:16:17;2.60;;;1.10;;
58512;SDS011;44302;47.914;10.642;2022-12-22T09:18:43;2.57;;;0.87;;
58512;SDS011;44302;47.914;10.642;2022-12-22T09:21:09;1.63;;;1.07;;
58512;SDS011;44302;47.914;10.642;2022-12-22T09:23:35;4.97;;;0.80;;
58512;SDS011;44302;47.914;10.642;2022-12-22T09:26:05;1.53;;;0.90;;
58512;SDS011;44302;47.914;10.642;2022-12-22T09:28:32;1.50;;;0.93;;
58512;SDS011;44302;47.914;10.642;2022-12-22T09:30:59;1.60;;;0.77;;
58512;SDS011;44302;47.914;10.642;2022-12-22T09:33:24;2.63;;;0.80;;
58512;SDS011;44302;47.914;10.642;2022-12-22T09:35:50;4.13;;;1.23;;
58512;SDS011;44302;47.914;10.642;2022-12-22T09:38:16;3.57;;;1.20;;
58512;SDS011;44302;47.914;10.642;2022-12-22T09:40:42;2.30;;;1.10;;
58512;SDS011;44302;47.914;10.642;2022-12-22T09:43:09;2.53;;;1.30;;
58512;SDS011;44302;47.914;10.642;2022-12-22T09:45:39;0.90;;;0.80;;
58512;SDS011;44302;47.914;10.642;2022-12-22T09:48:07;3.67;;;1.00;;
58512;SDS011;44302;47.914;10.642;2022-12-22T09:50:35;1.23;;;0.90;;
58512;SDS011;44302;47.914;10.642;2022-12-22T09:53:03;3.03;;;1.07;;
58512;SDS011;44302;47.914;10.642;2022-12-22T09:55:42;3.13;;;1.00;;
58512;SDS011;44302;47.914;10.642;2022-12-22T10:03:45;1.47;;;1.00;;
58512;SDS011;44302;47.914;10.642;2022-12-22T10:06:20;4.93;;;1.17;;
58512;SDS011;44302;47.914;10.642;2022-12-22T10:09:01;2.83;;;1.07;;
58512;SDS011;44302;47.914;10.642;2022-12-22T10:11:38;2.97;;;1.03;;
58512;SDS011;44302;47.914;10.642;2022-12-22T10:14:04;4.73;;;1.30;;
58512;SDS011;44302;47.914;10.642;2022-12-22T10:16:29;3.47;;;1.13;;
58512;SDS011;44302;47.914;10.642;2022-12-22T10:21:24;3.13;;;1.00;;
58512;SDS011;44302;47.914;10.642;2022-12-22T10:23:50;1.83;;;1.00;;
58512;SDS011;44302;47.914;10.642;2022-12-22T10:26:24;2.97;;;1.33;;
58512;SDS011;44302;47.914;10.642;2022-12-22T10:29:04;2.77;;;1.23;;
58512;SDS011;44302;47.914;10.642;2022-12-22T10:31:33;3.53;;;1.10;;
58512;SDS011;44302;47.914;10.642;2022-12-22T10:34:13;5.83;;;1.20;;
58512;SDS011;44302;47.914;10.642;2022-12-22T10:36:41;2.70;;;1.10;;
58512;SDS011;44302;47.914;10.642;2022-12-22T10:39:19;6.40;;;1.67;;
58512;SDS011;44302;47.914;10.642;2022-12-22T10:41:46;5.57;;;1.10;;
58512;SDS011;44302;47.914;10.642;2022-12-22T10:51:55;3.50;;;1.10;;
58512;SDS011;44302;47.914;10.642;2022-12-22T10:54:34;2.90;;;1.10;;
58512;SDS011;44302;47.914;10.642;2022-12-22T10:59:48;4.00;;;1.00;;
58512;SDS011;44302;47.914;10.642;2022-12-22T11:04:47;3.60;;;1.43;;
58512;SDS011;44302;47.914;10.642;2022-12-22T11:07:13;4.53;;;1.67;;
58512;SDS011;44302;47.914;10.642;2022-12-22T11:09:39;2.93;;;1.10;;
58512;SDS011;44302;47.914;10.642;2022-12-22T11:12:09;3.23;;;1.30;;
58512;SDS011;44302;47.914;10.642;2022-12-22T11:18:01;3.40;;;1.43;;
58512;SDS011;44302;47.914;10.642;2022-12-22T11:21:15;4.60;;;1.43;;
58512;SDS011;44302;47.914;10.642;2022-12-22T11:26:43;3.17;;;1.17;;
58512;SDS011;44302;47.914;10.642;2022-12-22T11:35:00;4.17;;;1.17;;
58512;SDS011;44302;47.914;10.642;2022-12-22T11:37:37;2.87;;;1.00;;
58512;SDS011;44302;47.914;10.642;2022-12-22T11:40:32;4.40;;;1.27;;
58512;SDS011;44302;47.914;10.642;2022-12-22T11:45:52;4.70;;;1.33;;
58512;SDS011;44302;47.914;10.642;2022-12-22T11:54:39;2.87;;;1.13;;
58512;SDS011;44302;47.914;10.642;2022-12-22T12:07:45;2.30;;;1.10;;
58512;SDS011;44302;47.914;10.642;2022-12-22T12:10:20;4.17;;;1.23;;
58512;SDS011;44302;47.914;10.642;2022-12-22T12:17:52;2.77;;;1.10;;
58512;SDS011;44302;47.914;10.642;2022-12-22T12:23:01;3.70;;;1.30;;
58512;SDS011;44302;47.914;10.642;2022-12-22T12:25:58;4.63;;;1.47;;
58512;SDS011;44302;47.914;10.642;2022-12-22T12:31:37;5.43;;;1.47;;
58512;SDS011;44302;47.914;10.642;2022-12-22T12:34:17;5.97;;;1.57;;
58512;SDS011;44302;47.914;10.642;2022-12-22T12:44:46;3.67;;;1.10;;
58512;SDS011;44302;47.914;10.642;2022-12-22T12:47:31;6.63;;;1.33;;
58512;SDS011;44302;47.914;10.642;2022-12-22T12:50:00;6.47;;;1.43;;
58512;SDS011;44302;47.914;10.642;2022-12-22T12:57:53;5.63;;;1.33;;
58512;SDS011;44302;47.914;10.642;2022-12-22T13:05:32;3.37;;;1.20;;
58512;SDS011;44302;47.914;10.642;2022-12-22T13:10:29;4.23;;;1.20;;
58512;SDS011;44302;47.914;10.642;2022-12-22T13:12:55;5.57;;;1.63;;
58512;SDS011;44302;47.914;10.642;2022-12-22T13:15:32;6.60;;;1.80;;
58512;SDS011;44302;47.914;10.642;2022-12-22T13:17:59;13.07;;;1.90;;
58512;SDS011;44302;47.914;10.642;2022-12-22T13:20:28;8.40;;;2.07;;
58512;SDS011;44302;47.914;10.642;2022-12-22T13:22:58;3.93;;;1.50;;
58512;SDS011;44302;47.914;10.642;2022-12-22T13:25:26;7.10;;;1.60;;
58512;SDS011;44302;47.914;10.642;2022-12-22T13:28:04;8.97;;;2.00;;
58512;SDS011;44302;47.914;10.642;2022-12-22T13:30:35;7.20;;;1.30;;
58512;SDS011;44302;47.914;10.642;2022-12-22T13:33:01;8.03;;;2.13;;
58512;SDS011;44302;47.914;10.642;2022-12-22T13:35:37;5.60;;;1.77;;
58512;SDS011;44302;47.914;10.642;2022-12-22T13:38:05;8.90;;;2.43;;
58512;SDS011;44302;47.914;10.642;2022-12-22T13:40:38;7.37;;;1.97;;
58512;SDS011;44302;47.914;10.642;2022-12-22T13:43:10;6.30;;;1.97;;
58512;SDS011;44302;47.914;10.642;2022-12-22T13:45:40;7.47;;;1.67;;
58512;SDS011;44302;47.914;10.642;2022-12-22T13:48:13;8.13;;;2.03;;
58512;SDS011;44302;47.914;10.642;2022-12-22T13:53:14;9.80;;;1.73;;
58512;SDS011;44302;47.914;10.642;2022-12-22T13:55:52;8.37;;;2.07;;
58512;SDS011;44302;47.914;10.642;2022-12-22T13:58:38;8.47;;;2.00;;
58512;SDS011;44302;47.914;10.642;2022-12-22T14:03:34;6.70;;;2.77;;
58512;SDS011;44302;47.914;10.642;2022-12-22T14:08:47;10.83;;;2.83;;
58512;SDS011;44302;47.914;10.642;2022-12-22T14:11:13;12.40;;;4.60;;
58512;SDS011;44302;47.914;10.642;2022-12-22T14:13:39;8.87;;;1.97;;
58512;SDS011;44302;47.914;10.642;2022-12-22T14:16:05;6.90;;;1.47;;
58512;SDS011;44302;47.914;10.642;2022-12-22T14:18:31;9.23;;;2.70;;
58512;SDS011;44302;47.914;10.642;2022-12-22T14:20:57;8.73;;;2.10;;
58512;SDS011;44302;47.914;10.642;2022-12-22T14:23:34;6.23;;;2.20;;
58512;SDS011;44302;47.914;10.642;2022-12-22T14:26:04;9.77;;;2.53;;
58512;SDS011;44302;47.914;10.642;2022-12-22T14:28:42;4.47;;;1.53;;
58512;SDS011;44302;47.914;10.642;2022-12-22T14:31:17;7.03;;;3.50;;
58512;SDS011;44302;47.914;10.642;2022-12-22T14:33:53;8.17;;;2.57;;
58512;SDS011;44302;47.914;10.642;2022-12-22T14:36:34;14.03;;;5.67;;
58512;SDS011;44302;47.914;10.642;2022-12-22T14:39:01;8.77;;;2.60;;
58512;SDS011;44302;47.914;10.642;2022-12-22T14:41:41;7.03;;;2.10;;
58512;SDS011;44302;47.914;10.642;2022-12-22T14:47:03;4.90;;;1.50;;
58512;SDS011;44302;47.914;10.642;2022-12-22T14:50:45;5.03;;;1.70;;
58512;SDS011;44302;47.914;10.642;2022-12-22T14:52:43;2.50;;;1.40;;
58512;SDS011;44302;47.914;10.642;2022-12-22T14:57:54;5.07;;;1.37;;
58512;SDS011;44302;47.914;10.642;2022-12-22T15:00:32;5.03;;;1.60;;
58512;SDS011;44302;47.914;10.642;2022-12-22T15:03:01;5.17;;;1.40;;
58512;SDS011;44302;47.914;10.642;2022-12-22T15:05:35;6.17;;;2.03;;
58512;SDS011;44302;47.914;10.642;2022-12-22T15:08:04;5.57;;;1.67;;
58512;SDS011;44302;47.914;10.642;2022-12-22T15:10:36;9.27;;;3.33;;
58512;SDS011;44302;47.914;10.642;2022-12-22T15:13:06;5.90;;;2.07;;
58512;SDS011;44302;47.914;10.642;2022-12-22T15:15:41;4.00;;;1.40;;
